sensor_id;sensor_type;location;lat;lon;timestamp;P1;durP1;ratioP1;P2;durP2;ratioP2
76582;SDS011;65462;52.148;7.940;2023-05-14T00:00:06;3.30;;;2.40;;
76582;SDS011;65462;52.148;7.940;2023-05-14T00:02:32;3.67;;;2.60;;
76582;SDS011;65462;52.148;7.940;2023-05-14T00:04:57;3.97;;;2.72;;
76582;SDS011;65462;52.148;7.940;2023-05-14T00:07:22;5.75;;;3.10;;
76582;SDS011;65462;52.148;7.940;2023-05-14T00:09:54;3.90;;;2.67;;
76582;SDS011;65462;52.148;7.940;2023-05-14T00:12:19;3.33;;;2.67;;
76582;SDS011;65462;52.148;7.940;2023-05-14T00:14:45;5.05;;;2.55;;
76582;SDS011;65462;52.148;7.940;2023-05-14T00:17:10;3.95;;;2.50;;
76582;SDS011;65462;52.148;7.940;2023-05-14T00:19:35;5.18;;;2.80;;
76582;SDS011;65462;52.148;7.940;2023-05-14T00:22:00;4.75;;;2.33;;
76582;SDS011;65462;52.148;7.940;2023-05-14T00:24:26;4.75;;;2.65;;
76582;SDS011;65462;52.148;7.940;2023-05-14T00:26:51;5.47;;;2.90;;
76582;SDS011;65462;52.148;7.940;2023-05-14T00:29:16;4.60;;;2.50;;
76582;SDS011;65462;52.148;7.940;2023-05-14T00:31:42;3.72;;;3.03;;
76582;SDS011;65462;52.148;7.940;2023-05-14T00:34:07;4.43;;;2.60;;
76582;SDS011;65462;52.148;7.940;2023-05-14T00:36:32;4.90;;;3.00;;
76582;SDS011;65462;52.148;7.940;2023-05-14T00:38:57;3.22;;;2.60;;
76582;SDS011;65462;52.148;7.940;2023-05-14T00:41:23;4.88;;;2.63;;
76582;SDS011;65462;52.148;7.940;2023-05-14T00:43:48;4.25;;;3.15;;
76582;SDS011;65462;52.148;7.940;2023-05-14T00:46:13;4.47;;;2.67;;
76582;SDS011;65462;52.148;7.940;2023-05-14T00:48:39;4.05;;;2.80;;
76582;SDS011;65462;52.148;7.940;2023-05-14T00:51:05;4.07;;;2.88;;
76582;SDS011;65462;52.148;7.940;2023-05-14T00:53:31;3.58;;;2.75;;
76582;SDS011;65462;52.148;7.940;2023-05-14T00:55:57;3.95;;;2.97;;
76582;SDS011;65462;52.148;7.940;2023-05-14T00:58:23;3.95;;;2.75;;
76582;SDS011;65462;52.148;7.940;2023-05-14T01:00:48;4.05;;;3.00;;
76582;SDS011;65462;52.148;7.940;2023-05-14T01:03:14;4.85;;;2.95;;
76582;SDS011;65462;52.148;7.940;2023-05-14T01:05:48;5.00;;;2.55;;
76582;SDS011;65462;52.148;7.940;2023-05-14T01:08:21;6.40;;;3.03;;
76582;SDS011;65462;52.148;7.940;2023-05-14T01:10:54;4.57;;;2.80;;
76582;SDS011;65462;52.148;7.940;2023-05-14T01:13:29;3.63;;;2.90;;
76582;SDS011;65462;52.148;7.940;2023-05-14T01:16:00;3.45;;;2.75;;
76582;SDS011;65462;52.148;7.940;2023-05-14T01:18:27;6.20;;;2.92;;
76582;SDS011;65462;52.148;7.940;2023-05-14T01:20:53;3.47;;;2.72;;
76582;SDS011;65462;52.148;7.940;2023-05-14T01:23:19;4.43;;;2.97;;
76582;SDS011;65462;52.148;7.940;2023-05-14T01:25:45;4.32;;;3.15;;
76582;SDS011;65462;52.148;7.940;2023-05-14T01:28:17;4.65;;;2.95;;
76582;SDS011;65462;52.148;7.940;2023-05-14T01:30:48;4.28;;;2.90;;
76582;SDS011;65462;52.148;7.940;2023-05-14T01:33:28;3.17;;;2.47;;
76582;SDS011;65462;52.148;7.940;2023-05-14T01:35:54;4.03;;;2.70;;
76582;SDS011;65462;52.148;7.940;2023-05-14T01:38:20;3.88;;;2.90;;
76582;SDS011;65462;52.148;7.940;2023-05-14T01:40:46;5.53;;;3.05;;
76582;SDS011;65462;52.148;7.940;2023-05-14T01:43:13;4.10;;;3.10;;
76582;SDS011;65462;52.148;7.940;2023-05-14T01:45:40;6.50;;;3.63;;
76582;SDS011;65462;52.148;7.940;2023-05-14T01:48:06;4.18;;;3.05;;
76582;SDS011;65462;52.148;7.940;2023-05-14T01:50:31;4.82;;;2.85;;
76582;SDS011;65462;52.148;7.940;2023-05-14T01:52:57;3.33;;;2.65;;
76582;SDS011;65462;52.148;7.940;2023-05-14T01:55:22;3.80;;;3.25;;
76582;SDS011;65462;52.148;7.940;2023-05-14T01:57:51;4.22;;;2.97;;
76582;SDS011;65462;52.148;7.940;2023-05-14T02:00:17;3.63;;;3.00;;
76582;SDS011;65462;52.148;7.940;2023-05-14T02:02:42;5.35;;;3.28;;
76582;SDS011;65462;52.148;7.940;2023-05-14T02:05:09;4.63;;;3.42;;
76582;SDS011;65462;52.148;7.940;2023-05-14T02:07:35;5.63;;;2.90;;
76582;SDS011;65462;52.148;7.940;2023-05-14T02:10:00;4.45;;;3.50;;
76582;SDS011;65462;52.148;7.940;2023-05-14T02:12:25;3.97;;;3.08;;
76582;SDS011;65462;52.148;7.940;2023-05-14T02:14:51;4.88;;;3.28;;
76582;SDS011;65462;52.148;7.940;2023-05-14T02:17:16;7.68;;;3.00;;
76582;SDS011;65462;52.148;7.940;2023-05-14T02:19:42;3.55;;;3.10;;
76582;SDS011;65462;52.148;7.940;2023-05-14T02:22:08;5.55;;;3.38;;
76582;SDS011;65462;52.148;7.940;2023-05-14T02:24:33;4.18;;;3.35;;
76582;SDS011;65462;52.148;7.940;2023-05-14T02:26:58;4.13;;;2.95;;
76582;SDS011;65462;52.148;7.940;2023-05-14T02:29:25;5.30;;;3.38;;
76582;SDS011;65462;52.148;7.940;2023-05-14T02:31:51;4.25;;;3.08;;
76582;SDS011;65462;52.148;7.940;2023-05-14T02:34:16;4.78;;;3.20;;
76582;SDS011;65462;52.148;7.940;2023-05-14T02:36:41;4.18;;;3.40;;
76582;SDS011;65462;52.148;7.940;2023-05-14T02:39:06;5.13;;;3.35;;
76582;SDS011;65462;52.148;7.940;2023-05-14T02:41:32;4.07;;;3.45;;
76582;SDS011;65462;52.148;7.940;2023-05-14T02:43:57;3.53;;;2.92;;
76582;SDS011;65462;52.148;7.940;2023-05-14T02:46:22;4.32;;;3.22;;
76582;SDS011;65462;52.148;7.940;2023-05-14T02:48:48;4.30;;;3.40;;
76582;SDS011;65462;52.148;7.940;2023-05-14T02:51:13;6.03;;;3.45;;
76582;SDS011;65462;52.148;7.940;2023-05-14T02:53:38;4.03;;;3.10;;
76582;SDS011;65462;52.148;7.940;2023-05-14T02:56:04;6.38;;;3.20;;
76582;SDS011;65462;52.148;7.940;2023-05-14T02:58:29;4.50;;;3.25;;
76582;SDS011;65462;52.148;7.940;2023-05-14T03:00:55;6.03;;;3.10;;
76582;SDS011;65462;52.148;7.940;2023-05-14T03:03:20;3.97;;;3.20;;
76582;SDS011;65462;52.148;7.940;2023-05-14T03:05:45;5.25;;;3.45;;
76582;SDS011;65462;52.148;7.940;2023-05-14T03:08:11;5.40;;;3.58;;
76582;SDS011;65462;52.148;7.940;2023-05-14T03:10:36;4.50;;;3.40;;
76582;SDS011;65462;52.148;7.940;2023-05-14T03:13:01;5.65;;;3.38;;
76582;SDS011;65462;52.148;7.940;2023-05-14T03:15:27;4.68;;;3.55;;
76582;SDS011;65462;52.148;7.940;2023-05-14T03:17:52;4.78;;;3.60;;
76582;SDS011;65462;52.148;7.940;2023-05-14T03:20:18;5.55;;;3.47;;
76582;SDS011;65462;52.148;7.940;2023-05-14T03:22:43;4.22;;;3.35;;
76582;SDS011;65462;52.148;7.940;2023-05-14T03:25:09;5.15;;;3.50;;
76582;SDS011;65462;52.148;7.940;2023-05-14T03:27:34;4.20;;;3.15;;
76582;SDS011;65462;52.148;7.940;2023-05-14T03:30:00;4.38;;;3.40;;
76582;SDS011;65462;52.148;7.940;2023-05-14T03:32:25;4.50;;;3.53;;
76582;SDS011;65462;52.148;7.940;2023-05-14T03:34:50;4.88;;;3.30;;
76582;SDS011;65462;52.148;7.940;2023-05-14T03:37:16;4.40;;;3.58;;
76582;SDS011;65462;52.148;7.940;2023-05-14T03:39:41;4.03;;;3.55;;
76582;SDS011;65462;52.148;7.940;2023-05-14T03:42:06;4.18;;;3.58;;
76582;SDS011;65462;52.148;7.940;2023-05-14T03:44:31;4.72;;;3.45;;
76582;SDS011;65462;52.148;7.940;2023-05-14T03:46:57;4.95;;;3.60;;
76582;SDS011;65462;52.148;7.940;2023-05-14T03:49:22;5.68;;;3.70;;
76582;SDS011;65462;52.148;7.940;2023-05-14T03:51:47;5.90;;;3.60;;
76582;SDS011;65462;52.148;7.940;2023-05-14T03:54:12;6.55;;;3.50;;
76582;SDS011;65462;52.148;7.940;2023-05-14T03:56:38;4.65;;;3.55;;
76582;SDS011;65462;52.148;7.940;2023-05-14T03:59:03;5.00;;;3.88;;
76582;SDS011;65462;52.148;7.940;2023-05-14T04:01:28;5.50;;;3.35;;
76582;SDS011;65462;52.148;7.940;2023-05-14T04:03:54;5.68;;;4.07;;
76582;SDS011;65462;52.148;7.940;2023-05-14T04:06:19;5.35;;;3.45;;
76582;SDS011;65462;52.148;7.940;2023-05-14T04:08:44;5.05;;;3.80;;
76582;SDS011;65462;52.148;7.940;2023-05-14T04:11:09;6.57;;;3.25;;
76582;SDS011;65462;52.148;7.940;2023-05-14T04:13:35;5.63;;;3.47;;
76582;SDS011;65462;52.148;7.940;2023-05-14T04:16:00;5.53;;;3.47;;
76582;SDS011;65462;52.148;7.940;2023-05-14T04:18:25;4.93;;;3.60;;
76582;SDS011;65462;52.148;7.940;2023-05-14T04:20:51;4.20;;;3.42;;
76582;SDS011;65462;52.148;7.940;2023-05-14T04:23:16;6.32;;;3.45;;
76582;SDS011;65462;52.148;7.940;2023-05-14T04:25:41;4.50;;;3.45;;
76582;SDS011;65462;52.148;7.940;2023-05-14T04:28:06;6.25;;;4.07;;
76582;SDS011;65462;52.148;7.940;2023-05-14T04:30:32;5.15;;;3.50;;
76582;SDS011;65462;52.148;7.940;2023-05-14T04:32:57;5.97;;;3.65;;
76582;SDS011;65462;52.148;7.940;2023-05-14T04:35:23;5.20;;;3.75;;
76582;SDS011;65462;52.148;7.940;2023-05-14T04:37:48;4.75;;;3.95;;
76582;SDS011;65462;52.148;7.940;2023-05-14T04:40:13;6.40;;;4.03;;
76582;SDS011;65462;52.148;7.940;2023-05-14T04:42:40;4.70;;;3.70;;
76582;SDS011;65462;52.148;7.940;2023-05-14T04:45:06;4.35;;;3.63;;
76582;SDS011;65462;52.148;7.940;2023-05-14T04:47:32;4.95;;;3.75;;
76582;SDS011;65462;52.148;7.940;2023-05-14T04:49:58;4.60;;;3.50;;
76582;SDS011;65462;52.148;7.940;2023-05-14T04:52:24;4.95;;;3.88;;
76582;SDS011;65462;52.148;7.940;2023-05-14T04:54:49;7.03;;;3.90;;
76582;SDS011;65462;52.148;7.940;2023-05-14T04:57:15;5.35;;;3.65;;
76582;SDS011;65462;52.148;7.940;2023-05-14T04:59:40;4.32;;;3.70;;
76582;SDS011;65462;52.148;7.940;2023-05-14T05:02:06;6.28;;;4.30;;
76582;SDS011;65462;52.148;7.940;2023-05-14T05:04:31;4.40;;;3.63;;
76582;SDS011;65462;52.148;7.940;2023-05-14T05:06:56;3.92;;;3.08;;
76582;SDS011;65462;52.148;7.940;2023-05-14T05:09:22;5.53;;;3.60;;
76582;SDS011;65462;52.148;7.940;2023-05-14T05:11:47;5.60;;;3.78;;
76582;SDS011;65462;52.148;7.940;2023-05-14T05:14:12;4.70;;;3.83;;
76582;SDS011;65462;52.148;7.940;2023-05-14T05:16:38;4.47;;;3.53;;
76582;SDS011;65462;52.148;7.940;2023-05-14T05:19:03;3.55;;;3.25;;
76582;SDS011;65462;52.148;7.940;2023-05-14T05:21:29;4.63;;;3.45;;
76582;SDS011;65462;52.148;7.940;2023-05-14T05:23:54;3.90;;;3.30;;
76582;SDS011;65462;52.148;7.940;2023-05-14T05:26:20;5.40;;;3.35;;
76582;SDS011;65462;52.148;7.940;2023-05-14T05:28:46;4.78;;;3.78;;
76582;SDS011;65462;52.148;7.940;2023-05-14T05:31:11;5.22;;;3.50;;
76582;SDS011;65462;52.148;7.940;2023-05-14T05:33:37;4.07;;;3.30;;
76582;SDS011;65462;52.148;7.940;2023-05-14T05:36:02;5.05;;;3.42;;
76582;SDS011;65462;52.148;7.940;2023-05-14T05:38:28;6.13;;;3.40;;
76582;SDS011;65462;52.148;7.940;2023-05-14T05:40:53;4.13;;;3.28;;
76582;SDS011;65462;52.148;7.940;2023-05-14T05:43:18;4.95;;;3.42;;
76582;SDS011;65462;52.148;7.940;2023-05-14T05:45:44;6.65;;;3.80;;
76582;SDS011;65462;52.148;7.940;2023-05-14T05:48:10;6.20;;;3.38;;
76582;SDS011;65462;52.148;7.940;2023-05-14T05:50:35;4.00;;;3.22;;
76582;SDS011;65462;52.148;7.940;2023-05-14T05:53:01;4.97;;;3.60;;
76582;SDS011;65462;52.148;7.940;2023-05-14T05:55:27;4.38;;;3.40;;
76582;SDS011;65462;52.148;7.940;2023-05-14T05:57:52;6.38;;;3.65;;
76582;SDS011;65462;52.148;7.940;2023-05-14T06:00:18;6.28;;;3.50;;
76582;SDS011;65462;52.148;7.940;2023-05-14T06:02:44;5.40;;;3.45;;
76582;SDS011;65462;52.148;7.940;2023-05-14T06:05:10;4.65;;;3.78;;
76582;SDS011;65462;52.148;7.940;2023-05-14T06:07:35;5.18;;;3.55;;
76582;SDS011;65462;52.148;7.940;2023-05-14T06:10:01;4.35;;;3.83;;
76582;SDS011;65462;52.148;7.940;2023-05-14T06:12:26;6.72;;;4.05;;
76582;SDS011;65462;52.148;7.940;2023-05-14T06:14:53;4.82;;;3.65;;
76582;SDS011;65462;52.148;7.940;2023-05-14T06:17:19;4.57;;;4.13;;
76582;SDS011;65462;52.148;7.940;2023-05-14T06:19:45;5.05;;;4.13;;
76582;SDS011;65462;52.148;7.940;2023-05-14T06:22:10;5.63;;;4.30;;
76582;SDS011;65462;52.148;7.940;2023-05-14T06:24:35;6.15;;;4.90;;
76582;SDS011;65462;52.148;7.940;2023-05-14T06:27:01;4.25;;;3.75;;
76582;SDS011;65462;52.148;7.940;2023-05-14T06:29:26;6.18;;;4.55;;
76582;SDS011;65462;52.148;7.940;2023-05-14T06:31:51;5.57;;;4.35;;
76582;SDS011;65462;52.148;7.940;2023-05-14T06:34:17;5.35;;;4.38;;
76582;SDS011;65462;52.148;7.940;2023-05-14T06:36:42;5.15;;;3.97;;
76582;SDS011;65462;52.148;7.940;2023-05-14T06:39:08;5.10;;;4.30;;
76582;SDS011;65462;52.148;7.940;2023-05-14T06:41:33;5.40;;;3.95;;
76582;SDS011;65462;52.148;7.940;2023-05-14T06:43:59;5.03;;;3.90;;
76582;SDS011;65462;52.148;7.940;2023-05-14T06:46:24;4.22;;;3.83;;
76582;SDS011;65462;52.148;7.940;2023-05-14T06:48:49;5.95;;;4.03;;
76582;SDS011;65462;52.148;7.940;2023-05-14T06:51:15;4.55;;;3.90;;
76582;SDS011;65462;52.148;7.940;2023-05-14T06:53:40;4.03;;;3.45;;
76582;SDS011;65462;52.148;7.940;2023-05-14T06:56:05;4.40;;;3.60;;
76582;SDS011;65462;52.148;7.940;2023-05-14T06:58:31;4.55;;;3.85;;
76582;SDS011;65462;52.148;7.940;2023-05-14T07:00:57;4.22;;;3.60;;
76582;SDS011;65462;52.148;7.940;2023-05-14T07:03:22;4.00;;;3.42;;
76582;SDS011;65462;52.148;7.940;2023-05-14T07:05:47;3.75;;;3.30;;
76582;SDS011;65462;52.148;7.940;2023-05-14T07:08:13;4.60;;;3.30;;
76582;SDS011;65462;52.148;7.940;2023-05-14T07:10:38;3.90;;;3.25;;
76582;SDS011;65462;52.148;7.940;2023-05-14T07:13:04;3.95;;;2.95;;
76582;SDS011;65462;52.148;7.940;2023-05-14T07:15:29;4.72;;;3.20;;
76582;SDS011;65462;52.148;7.940;2023-05-14T07:17:55;4.70;;;3.00;;
76582;SDS011;65462;52.148;7.940;2023-05-14T07:20:20;3.60;;;2.72;;
76582;SDS011;65462;52.148;7.940;2023-05-14T07:22:47;3.42;;;2.90;;
76582;SDS011;65462;52.148;7.940;2023-05-14T07:25:13;3.40;;;3.00;;
76582;SDS011;65462;52.148;7.940;2023-05-14T07:27:38;4.75;;;2.65;;
76582;SDS011;65462;52.148;7.940;2023-05-14T07:30:04;3.10;;;2.72;;
76582;SDS011;65462;52.148;7.940;2023-05-14T07:32:30;3.40;;;2.78;;
76582;SDS011;65462;52.148;7.940;2023-05-14T07:34:55;2.72;;;2.53;;
76582;SDS011;65462;52.148;7.940;2023-05-14T07:37:20;3.88;;;2.58;;
76582;SDS011;65462;52.148;7.940;2023-05-14T07:39:46;2.90;;;2.15;;
76582;SDS011;65462;52.148;7.940;2023-05-14T07:42:12;2.70;;;2.33;;
76582;SDS011;65462;52.148;7.940;2023-05-14T07:44:37;3.45;;;2.47;;
76582;SDS011;65462;52.148;7.940;2023-05-14T07:47:02;2.72;;;2.20;;
76582;SDS011;65462;52.148;7.940;2023-05-14T07:49:34;4.05;;;2.47;;
76582;SDS011;65462;52.148;7.940;2023-05-14T07:51:59;3.05;;;2.33;;
76582;SDS011;65462;52.148;7.940;2023-05-14T07:54:25;2.75;;;2.35;;
76582;SDS011;65462;52.148;7.940;2023-05-14T07:56:50;2.53;;;2.00;;
76582;SDS011;65462;52.148;7.940;2023-05-14T07:59:16;4.13;;;2.30;;
76582;SDS011;65462;52.148;7.940;2023-05-14T08:01:41;3.22;;;2.22;;
76582;SDS011;65462;52.148;7.940;2023-05-14T08:04:06;2.90;;;2.20;;
76582;SDS011;65462;52.148;7.940;2023-05-14T08:06:32;3.50;;;2.10;;
76582;SDS011;65462;52.148;7.940;2023-05-14T08:08:58;2.40;;;2.20;;
76582;SDS011;65462;52.148;7.940;2023-05-14T08:11:23;2.28;;;1.80;;
76582;SDS011;65462;52.148;7.940;2023-05-14T08:13:48;2.40;;;2.15;;
76582;SDS011;65462;52.148;7.940;2023-05-14T08:16:13;2.50;;;2.10;;
76582;SDS011;65462;52.148;7.940;2023-05-14T08:18:39;3.17;;;2.20;;
76582;SDS011;65462;52.148;7.940;2023-05-14T08:21:05;2.67;;;1.92;;
76582;SDS011;65462;52.148;7.940;2023-05-14T08:23:30;2.58;;;2.20;;
76582;SDS011;65462;52.148;7.940;2023-05-14T08:25:55;3.38;;;2.03;;
76582;SDS011;65462;52.148;7.940;2023-05-14T08:28:21;3.35;;;1.70;;
76582;SDS011;65462;52.148;7.940;2023-05-14T08:30:46;2.28;;;2.08;;
76582;SDS011;65462;52.148;7.940;2023-05-14T08:33:11;2.22;;;2.00;;
76582;SDS011;65462;52.148;7.940;2023-05-14T08:35:43;2.05;;;1.85;;
76582;SDS011;65462;52.148;7.940;2023-05-14T08:38:08;1.98;;;1.80;;
76582;SDS011;65462;52.148;7.940;2023-05-14T08:40:39;2.58;;;1.90;;
76582;SDS011;65462;52.148;7.940;2023-05-14T08:43:05;2.13;;;1.83;;
76582;SDS011;65462;52.148;7.940;2023-05-14T08:45:37;2.45;;;1.70;;
76582;SDS011;65462;52.148;7.940;2023-05-14T08:48:04;2.70;;;1.93;;
76582;SDS011;65462;52.148;7.940;2023-05-14T08:50:35;2.50;;;1.58;;
76582;SDS011;65462;52.148;7.940;2023-05-14T08:53:01;2.30;;;1.80;;
76582;SDS011;65462;52.148;7.940;2023-05-14T08:55:32;1.80;;;1.40;;
76582;SDS011;65462;52.148;7.940;2023-05-14T08:57:58;3.00;;;2.08;;
76582;SDS011;65462;52.148;7.940;2023-05-14T09:00:23;2.83;;;1.88;;
76582;SDS011;65462;52.148;7.940;2023-05-14T09:02:50;2.65;;;1.92;;
76582;SDS011;65462;52.148;7.940;2023-05-14T09:05:16;2.33;;;1.67;;
76582;SDS011;65462;52.148;7.940;2023-05-14T09:07:43;3.40;;;2.13;;
76582;SDS011;65462;52.148;7.940;2023-05-14T09:10:09;3.17;;;1.90;;
76582;SDS011;65462;52.148;7.940;2023-05-14T09:12:35;2.50;;;1.67;;
76582;SDS011;65462;52.148;7.940;2023-05-14T09:15:00;2.25;;;1.67;;
76582;SDS011;65462;52.148;7.940;2023-05-14T09:17:26;2.15;;;1.60;;
76582;SDS011;65462;52.148;7.940;2023-05-14T09:19:53;1.65;;;1.40;;
76582;SDS011;65462;52.148;7.940;2023-05-14T09:22:18;3.28;;;1.80;;
76582;SDS011;65462;52.148;7.940;2023-05-14T09:24:44;2.15;;;1.77;;
76582;SDS011;65462;52.148;7.940;2023-05-14T09:27:19;2.60;;;1.63;;
76582;SDS011;65462;52.148;7.940;2023-05-14T09:29:46;2.42;;;1.73;;
76582;SDS011;65462;52.148;7.940;2023-05-14T09:32:11;2.25;;;1.60;;
76582;SDS011;65462;52.148;7.940;2023-05-14T09:34:37;1.95;;;1.75;;
76582;SDS011;65462;52.148;7.940;2023-05-14T09:37:03;1.88;;;1.50;;
76582;SDS011;65462;52.148;7.940;2023-05-14T09:39:31;2.17;;;1.80;;
76582;SDS011;65462;52.148;7.940;2023-05-14T09:41:57;2.00;;;1.67;;
76582;SDS011;65462;52.148;7.940;2023-05-14T09:44:23;2.05;;;1.85;;
76582;SDS011;65462;52.148;7.940;2023-05-14T09:46:49;3.30;;;1.92;;
76582;SDS011;65462;52.148;7.940;2023-05-14T09:49:14;3.05;;;1.92;;
76582;SDS011;65462;52.148;7.940;2023-05-14T09:51:40;2.65;;;1.98;;
76582;SDS011;65462;52.148;7.940;2023-05-14T09:54:06;2.40;;;2.00;;
76582;SDS011;65462;52.148;7.940;2023-05-14T09:56:32;2.25;;;1.70;;
76582;SDS011;65462;52.148;7.940;2023-05-14T09:58:58;2.67;;;1.50;;
76582;SDS011;65462;52.148;7.940;2023-05-14T10:01:23;2.03;;;1.70;;
76582;SDS011;65462;52.148;7.940;2023-05-14T10:03:49;3.53;;;1.60;;
76582;SDS011;65462;52.148;7.940;2023-05-14T10:06:16;1.98;;;1.40;;
76582;SDS011;65462;52.148;7.940;2023-05-14T10:08:44;1.90;;;1.60;;
76582;SDS011;65462;52.148;7.940;2023-05-14T10:11:13;2.97;;;1.50;;
76582;SDS011;65462;52.148;7.940;2023-05-14T10:13:45;1.92;;;1.60;;
76582;SDS011;65462;52.148;7.940;2023-05-14T10:16:20;3.10;;;1.40;;
76582;SDS011;65462;52.148;7.940;2023-05-14T10:18:54;1.60;;;1.50;;
76582;SDS011;65462;52.148;7.940;2023-05-14T10:21:24;2.33;;;1.65;;
76582;SDS011;65462;52.148;7.940;2023-05-14T10:23:53;2.22;;;1.63;;
76582;SDS011;65462;52.148;7.940;2023-05-14T10:26:19;2.08;;;1.85;;
76582;SDS011;65462;52.148;7.940;2023-05-14T10:28:45;2.30;;;1.55;;
76582;SDS011;65462;52.148;7.940;2023-05-14T10:31:11;1.67;;;1.42;;
76582;SDS011;65462;52.148;7.940;2023-05-14T10:33:46;2.78;;;1.65;;
76582;SDS011;65462;52.148;7.940;2023-05-14T10:36:14;1.55;;;1.38;;
76582;SDS011;65462;52.148;7.940;2023-05-14T10:38:40;2.55;;;1.92;;
76582;SDS011;65462;52.148;7.940;2023-05-14T10:41:12;2.28;;;1.67;;
76582;SDS011;65462;52.148;7.940;2023-05-14T10:43:45;1.70;;;1.60;;
76582;SDS011;65462;52.148;7.940;2023-05-14T10:46:11;2.50;;;1.70;;
76582;SDS011;65462;52.148;7.940;2023-05-14T10:48:38;3.25;;;1.80;;
76582;SDS011;65462;52.148;7.940;2023-05-14T10:51:06;2.33;;;1.70;;
76582;SDS011;65462;52.148;7.940;2023-05-14T10:53:36;1.80;;;1.70;;
76582;SDS011;65462;52.148;7.940;2023-05-14T10:56:04;2.20;;;1.67;;
76582;SDS011;65462;52.148;7.940;2023-05-14T10:58:31;3.95;;;1.88;;
76582;SDS011;65462;52.148;7.940;2023-05-14T11:00:59;2.40;;;1.67;;
76582;SDS011;65462;52.148;7.940;2023-05-14T11:03:29;3.47;;;1.92;;
76582;SDS011;65462;52.148;7.940;2023-05-14T11:05:55;2.00;;;1.50;;
76582;SDS011;65462;52.148;7.940;2023-05-14T11:08:21;2.10;;;1.83;;
76582;SDS011;65462;52.148;7.940;2023-05-14T11:10:47;2.40;;;1.77;;
76582;SDS011;65462;52.148;7.940;2023-05-14T11:13:13;2.28;;;1.63;;
76582;SDS011;65462;52.148;7.940;2023-05-14T11:15:39;3.33;;;2.00;;
76582;SDS011;65462;52.148;7.940;2023-05-14T11:18:10;2.65;;;2.13;;
76582;SDS011;65462;52.148;7.940;2023-05-14T11:20:36;2.22;;;1.90;;
76582;SDS011;65462;52.148;7.940;2023-05-14T11:23:01;2.13;;;1.83;;
76582;SDS011;65462;52.148;7.940;2023-05-14T11:25:27;4.35;;;1.95;;
76582;SDS011;65462;52.148;7.940;2023-05-14T11:27:52;1.75;;;1.60;;
76582;SDS011;65462;52.148;7.940;2023-05-14T11:30:22;3.05;;;1.85;;
76582;SDS011;65462;52.148;7.940;2023-05-14T11:32:47;2.95;;;1.70;;
76582;SDS011;65462;52.148;7.940;2023-05-14T11:35:14;1.83;;;1.60;;
76582;SDS011;65462;52.148;7.940;2023-05-14T11:37:40;2.83;;;1.70;;
76582;SDS011;65462;52.148;7.940;2023-05-14T11:40:07;1.85;;;1.67;;
76582;SDS011;65462;52.148;7.940;2023-05-14T11:42:34;1.90;;;1.58;;
76582;SDS011;65462;52.148;7.940;2023-05-14T11:45:00;2.50;;;1.60;;
76582;SDS011;65462;52.148;7.940;2023-05-14T11:47:26;1.75;;;1.52;;
76582;SDS011;65462;52.148;7.940;2023-05-14T11:49:53;2.80;;;2.13;;
76582;SDS011;65462;52.148;7.940;2023-05-14T11:52:19;2.17;;;1.65;;
76582;SDS011;65462;52.148;7.940;2023-05-14T11:54:45;3.55;;;1.70;;
76582;SDS011;65462;52.148;7.940;2023-05-14T11:57:15;1.80;;;1.50;;
76582;SDS011;65462;52.148;7.940;2023-05-14T11:59:42;1.75;;;1.50;;
76582;SDS011;65462;52.148;7.940;2023-05-14T12:02:11;2.00;;;1.40;;
76582;SDS011;65462;52.148;7.940;2023-05-14T12:04:38;1.80;;;1.25;;
76582;SDS011;65462;52.148;7.940;2023-05-14T12:07:11;1.88;;;1.50;;
76582;SDS011;65462;52.148;7.940;2023-05-14T12:09:41;1.77;;;1.42;;
76582;SDS011;65462;52.148;7.940;2023-05-14T12:12:12;2.13;;;1.40;;
76582;SDS011;65462;52.148;7.940;2023-05-14T12:14:39;1.75;;;1.40;;
76582;SDS011;65462;52.148;7.940;2023-05-14T12:19:44;1.88;;;1.40;;
76582;SDS011;65462;52.148;7.940;2023-05-14T12:22:15;2.47;;;1.20;;
76582;SDS011;65462;52.148;7.940;2023-05-14T12:24:51;1.40;;;1.15;;
76582;SDS011;65462;52.148;7.940;2023-05-14T12:27:20;1.95;;;1.52;;
76582;SDS011;65462;52.148;7.940;2023-05-14T12:29:46;1.83;;;1.40;;
76582;SDS011;65462;52.148;7.940;2023-05-14T12:32:11;1.85;;;1.45;;
76582;SDS011;65462;52.148;7.940;2023-05-14T12:34:37;1.77;;;1.30;;
76582;SDS011;65462;52.148;7.940;2023-05-14T12:37:03;3.58;;;1.50;;
76582;SDS011;65462;52.148;7.940;2023-05-14T12:39:31;1.50;;;1.33;;
76582;SDS011;65462;52.148;7.940;2023-05-14T12:41:57;1.85;;;1.50;;
76582;SDS011;65462;52.148;7.940;2023-05-14T12:44:22;2.22;;;1.40;;
76582;SDS011;65462;52.148;7.940;2023-05-14T12:46:48;2.25;;;1.48;;
76582;SDS011;65462;52.148;7.940;2023-05-14T12:49:13;2.95;;;1.42;;
76582;SDS011;65462;52.148;7.940;2023-05-14T12:51:38;1.63;;;1.08;;
76582;SDS011;65462;52.148;7.940;2023-05-14T12:54:03;1.55;;;1.30;;
76582;SDS011;65462;52.148;7.940;2023-05-14T12:56:29;1.90;;;1.45;;
76582;SDS011;65462;52.148;7.940;2023-05-14T12:58:56;2.25;;;1.33;;
76582;SDS011;65462;52.148;7.940;2023-05-14T13:01:21;2.13;;;1.65;;
76582;SDS011;65462;52.148;7.940;2023-05-14T13:03:47;1.83;;;1.58;;
76582;SDS011;65462;52.148;7.940;2023-05-14T13:06:13;2.08;;;1.60;;
76582;SDS011;65462;52.148;7.940;2023-05-14T13:08:38;1.70;;;1.60;;
76582;SDS011;65462;52.148;7.940;2023-05-14T13:11:04;1.63;;;1.27;;
76582;SDS011;65462;52.148;7.940;2023-05-14T13:13:29;1.75;;;1.48;;
76582;SDS011;65462;52.148;7.940;2023-05-14T13:15:54;1.92;;;1.42;;
76582;SDS011;65462;52.148;7.940;2023-05-14T13:18:20;1.55;;;1.42;;
76582;SDS011;65462;52.148;7.940;2023-05-14T13:20:45;1.70;;;1.60;;
76582;SDS011;65462;52.148;7.940;2023-05-14T13:23:11;2.85;;;1.80;;
76582;SDS011;65462;52.148;7.940;2023-05-14T13:25:37;2.08;;;1.55;;
76582;SDS011;65462;52.148;7.940;2023-05-14T13:28:02;2.10;;;1.90;;
76582;SDS011;65462;52.148;7.940;2023-05-14T13:30:27;2.47;;;1.88;;
76582;SDS011;65462;52.148;7.940;2023-05-14T13:32:53;2.08;;;1.58;;
76582;SDS011;65462;52.148;7.940;2023-05-14T13:35:19;2.47;;;1.58;;
76582;SDS011;65462;52.148;7.940;2023-05-14T13:37:44;2.10;;;1.70;;
76582;SDS011;65462;52.148;7.940;2023-05-14T13:40:11;2.03;;;1.40;;
76582;SDS011;65462;52.148;7.940;2023-05-14T13:42:37;2.35;;;1.60;;
76582;SDS011;65462;52.148;7.940;2023-05-14T13:45:03;1.75;;;1.58;;
76582;SDS011;65462;52.148;7.940;2023-05-14T13:47:29;2.20;;;1.50;;
76582;SDS011;65462;52.148;7.940;2023-05-14T13:49:55;2.40;;;1.63;;
76582;SDS011;65462;52.148;7.940;2023-05-14T13:52:23;2.63;;;1.50;;
76582;SDS011;65462;52.148;7.940;2023-05-14T13:54:48;2.28;;;1.73;;
76582;SDS011;65462;52.148;7.940;2023-05-14T13:57:14;2.60;;;1.50;;
76582;SDS011;65462;52.148;7.940;2023-05-14T13:59:40;2.60;;;1.60;;
76582;SDS011;65462;52.148;7.940;2023-05-14T14:02:06;2.25;;;1.60;;
76582;SDS011;65462;52.148;7.940;2023-05-14T14:04:31;2.38;;;1.60;;
76582;SDS011;65462;52.148;7.940;2023-05-14T14:06:56;1.70;;;1.60;;
76582;SDS011;65462;52.148;7.940;2023-05-14T14:09:22;3.05;;;1.77;;
76582;SDS011;65462;52.148;7.940;2023-05-14T14:11:49;2.47;;;1.50;;
76582;SDS011;65462;52.148;7.940;2023-05-14T14:14:15;1.88;;;1.30;;
76582;SDS011;65462;52.148;7.940;2023-05-14T14:16:41;2.03;;;1.50;;
76582;SDS011;65462;52.148;7.940;2023-05-14T14:19:06;3.20;;;1.65;;
76582;SDS011;65462;52.148;7.940;2023-05-14T14:21:32;1.80;;;1.48;;
76582;SDS011;65462;52.148;7.940;2023-05-14T14:23:59;2.28;;;1.60;;
76582;SDS011;65462;52.148;7.940;2023-05-14T14:26:25;3.05;;;1.55;;
76582;SDS011;65462;52.148;7.940;2023-05-14T14:28:51;3.10;;;1.45;;
76582;SDS011;65462;52.148;7.940;2023-05-14T14:31:17;1.98;;;1.50;;
76582;SDS011;65462;52.148;7.940;2023-05-14T14:33:42;2.95;;;1.60;;
76582;SDS011;65462;52.148;7.940;2023-05-14T14:36:08;2.78;;;1.42;;
76582;SDS011;65462;52.148;7.940;2023-05-14T14:38:33;3.38;;;1.58;;
76582;SDS011;65462;52.148;7.940;2023-05-14T14:40:59;2.00;;;1.50;;
76582;SDS011;65462;52.148;7.940;2023-05-14T14:43:27;1.52;;;1.30;;